createdAt,value
2018-12-06T00:01:20.427Z,90.04
2018-12-06T00:03:48.215Z,89.73
2018-12-06T00:06:16.006Z,89.79
2018-12-06T00:08:45.843Z,90.21
2018-12-06T00:11:13.502Z,89.67
2018-12-06T00:13:41.117Z,89.53
2018-12-06T00:16:08.742Z,89.32
2018-12-06T00:18:36.543Z,88.96
2018-12-06T00:21:04.186Z,89.36
2018-12-06T00:23:31.805Z,89.59
2018-12-06T00:25:59.429Z,89.58
2018-12-06T00:28:27.180Z,89.45
2018-12-06T00:30:55.719Z,88.91
2018-12-06T00:33:23.337Z,88.94
2018-12-06T00:35:50.954Z,88.82
2018-12-06T00:38:18.659Z,88.68
2018-12-06T00:40:46.394Z,88.82
2018-12-06T00:43:14.842Z,88.59
2018-12-06T00:45:43.771Z,88.73
2018-12-06T00:48:12.381Z,88.66
2018-12-06T00:50:40.018Z,89.04
2018-12-06T00:53:07.638Z,88.78
2018-12-06T00:55:36.071Z,88.63
2018-12-06T00:58:04.392Z,88.65
2018-12-06T01:00:33.023Z,88.52
2018-12-06T01:03:00.821Z,88.74
2018-12-06T01:05:28.627Z,89.08
2018-12-06T01:07:56.254Z,88.45
2018-12-06T01:10:23.879Z,88.65
2018-12-06T01:12:52.351Z,88.09
2018-12-06T01:15:19.967Z,88.08
2018-12-06T01:17:47.589Z,87.87
2018-12-06T01:20:15.255Z,87.71
2018-12-06T01:22:43.733Z,88.20
2018-12-06T01:25:11.621Z,88.26
2018-12-06T01:27:39.326Z,87.81
2018-12-06T01:30:07.318Z,87.70
2018-12-06T01:32:34.937Z,87.82
2018-12-06T01:35:02.551Z,88.05
2018-12-06T01:37:31.184Z,87.62
2018-12-06T01:39:58.893Z,87.60
2018-12-06T01:42:26.506Z,87.47
2018-12-06T01:44:54.119Z,87.49
2018-12-06T01:47:21.742Z,86.17
2018-12-06T01:49:49.470Z,86.83
2018-12-06T01:52:17.358Z,86.75
2018-12-06T01:54:44.973Z,87.16
2018-12-06T01:57:12.591Z,86.79
2018-12-06T01:59:40.256Z,86.66
2018-12-06T02:02:08.016Z,86.69
2018-12-06T02:04:35.676Z,86.58
2018-12-06T02:07:03.310Z,86.77
2018-12-06T02:09:31.077Z,86.76
2018-12-06T02:12:03.695Z,86.00
2018-12-06T02:14:31.326Z,86.14
2018-12-06T02:16:58.984Z,85.82
2018-12-06T02:19:26.601Z,86.25
2018-12-06T02:21:54.223Z,86.29
2018-12-06T02:24:21.836Z,85.69
2018-12-06T02:26:50.353Z,85.88
2018-12-06T02:29:18.676Z,86.38
2018-12-06T02:31:47.152Z,86.81
2018-12-06T02:34:14.777Z,86.44
2018-12-06T02:36:42.512Z,86.05
2018-12-06T02:39:10.140Z,86.04
2018-12-06T02:41:37.774Z,86.01
2018-12-06T02:44:06.190Z,86.48
2018-12-06T02:46:34.570Z,86.25
2018-12-06T02:49:02.999Z,86.34
2018-12-06T02:51:30.683Z,86.26
2018-12-06T02:53:58.330Z,86.46
2018-12-06T02:56:26.869Z,86.15
2018-12-06T02:58:54.506Z,85.79
2018-12-06T03:01:22.132Z,86.12
2018-12-06T03:03:50.646Z,86.37
2018-12-06T03:06:19.288Z,86.01
2018-12-06T03:08:47.732Z,86.28
2018-12-06T03:11:16.294Z,86.28
2018-12-06T03:13:44.157Z,85.84
2018-12-06T03:16:11.783Z,86.11
2018-12-06T03:18:39.403Z,85.98
2018-12-06T03:21:07.105Z,85.89
2018-12-06T03:23:34.959Z,85.67
2018-12-06T03:26:02.741Z,85.42
2018-12-06T03:28:30.444Z,85.95
2018-12-06T03:30:58.229Z,85.42
2018-12-06T03:33:25.839Z,86.04
2018-12-06T03:35:54.244Z,85.71
2018-12-06T03:38:22.033Z,85.28
2018-12-06T03:40:49.824Z,84.98
2018-12-06T03:43:17.453Z,85.55
2018-12-06T03:45:45.112Z,84.97
2018-12-06T03:48:13.549Z,84.95
2018-12-06T03:50:41.163Z,85.29
2018-12-06T03:53:08.785Z,84.91
2018-12-06T03:55:36.500Z,84.71
2018-12-06T03:58:04.125Z,84.50
2018-12-06T04:00:31.742Z,84.83
2018-12-06T04:03:00.177Z,84.43
2018-12-06T04:05:27.797Z,83.82
2018-12-06T04:07:56.265Z,84.02
2018-12-06T04:10:23.994Z,84.47
2018-12-06T04:12:52.816Z,83.75
2018-12-06T04:15:20.599Z,83.40
2018-12-06T04:17:48.390Z,83.58
2018-12-06T04:20:16.180Z,83.58
2018-12-06T04:22:44.643Z,83.52
2018-12-06T04:25:14.162Z,82.87
2018-12-06T04:27:43.872Z,82.84
2018-12-06T04:30:11.482Z,82.68
2018-12-06T04:32:39.794Z,81.88
2018-12-06T04:35:07.599Z,81.92
2018-12-06T04:37:36.129Z,81.78
2018-12-06T04:40:04.706Z,81.29
2018-12-06T04:42:32.324Z,81.04
2018-12-06T04:44:59.947Z,81.38
2018-12-06T04:47:27.609Z,81.48
2018-12-06T04:49:55.221Z,81.36
2018-12-06T04:52:22.848Z,80.96
2018-12-06T04:54:50.514Z,80.95
2018-12-06T04:57:18.148Z,80.32
2018-12-06T04:59:46.563Z,80.51
2018-12-06T05:02:15.030Z,80.49
2018-12-06T05:04:43.565Z,80.07
2018-12-06T05:07:11.180Z,79.06
2018-12-06T05:09:38.794Z,79.44
2018-12-06T05:12:06.564Z,79.55
2018-12-06T05:14:35.084Z,79.63
2018-12-06T05:17:02.862Z,78.96
2018-12-06T05:19:30.568Z,79.74
2018-12-06T05:21:58.260Z,79.27
2018-12-06T05:24:25.890Z,79.00
2018-12-06T05:26:53.516Z,78.87
2018-12-06T05:29:21.939Z,78.76
2018-12-06T05:31:49.719Z,78.69
2018-12-06T05:34:17.512Z,78.27
2018-12-06T05:36:45.962Z,78.40
2018-12-06T05:39:13.584Z,77.85
2018-12-06T05:41:42.001Z,78.82
2018-12-06T05:44:10.420Z,78.24
2018-12-06T05:46:39.323Z,77.86
2018-12-06T05:49:07.019Z,77.02
2018-12-06T05:51:35.689Z,77.24
2018-12-06T05:54:03.403Z,77.30
2018-12-06T05:56:31.954Z,77.28
2018-12-06T05:58:59.578Z,76.97
2018-12-06T06:01:27.924Z,77.19
2018-12-06T06:03:55.557Z,76.66
2018-12-06T06:06:23.172Z,76.42
2018-12-06T06:08:51.626Z,76.38
2018-12-06T06:11:19.247Z,77.04
2018-12-06T06:13:47.781Z,77.07
2018-12-06T06:16:16.362Z,76.65
2018-12-06T06:18:44.749Z,77.02
2018-12-06T06:21:13.792Z,77.38
2018-12-06T06:23:41.751Z,77.00
2018-12-06T06:26:10.329Z,77.16
2018-12-06T06:28:37.952Z,77.31
2018-12-06T06:31:06.514Z,77.23
2018-12-06T06:33:34.136Z,76.67
2018-12-06T06:36:02.702Z,76.10
2018-12-06T06:38:30.301Z,76.13
2018-12-06T06:40:57.964Z,76.81
2018-12-06T06:43:26.515Z,76.74
2018-12-06T06:45:55.087Z,76.74
2018-12-06T06:48:22.730Z,76.34
2018-12-06T06:50:50.353Z,76.82
2018-12-06T06:53:18.943Z,76.50
2018-12-06T06:55:46.583Z,76.69
2018-12-06T06:58:15.020Z,76.55
2018-12-06T07:00:43.599Z,76.63
2018-12-06T07:03:12.572Z,76.58
2018-12-06T07:05:41.004Z,76.45
2018-12-06T07:08:09.562Z,77.02
2018-12-06T07:10:38.132Z,78.15
2018-12-06T07:13:05.809Z,77.89
2018-12-06T07:15:34.180Z,79.34
2018-12-06T07:18:02.577Z,79.23
2018-12-06T07:20:30.998Z,78.33
2018-12-06T07:23:00.967Z,77.58
2018-12-06T07:25:29.833Z,78.67
2018-12-06T07:27:57.462Z,78.12
2018-12-06T07:30:25.083Z,78.10
2018-12-06T07:32:53.737Z,78.06
2018-12-06T07:35:21.390Z,77.31
2018-12-06T07:37:49.861Z,76.70
2018-12-06T07:40:18.418Z,77.56
2018-12-06T07:42:46.891Z,77.71
2018-12-06T07:45:16.581Z,78.20
2018-12-06T07:47:46.171Z,77.55
2018-12-06T07:50:14.747Z,77.47
2018-12-06T07:52:42.367Z,77.78
2018-12-06T07:55:10.153Z,78.30
2018-12-06T07:57:38.670Z,78.10
2018-12-06T08:00:08.868Z,78.58
2018-12-06T08:02:36.589Z,78.37
2018-12-06T08:05:06.317Z,77.73
2018-12-06T08:07:35.627Z,78.69
2018-12-06T08:10:04.432Z,79.27
2018-12-06T08:12:32.074Z,78.41
2018-12-06T08:14:59.694Z,78.08
2018-12-06T08:17:28.098Z,78.14
2018-12-06T08:19:55.711Z,77.68
2018-12-06T08:22:23.344Z,77.48
2018-12-06T08:24:50.964Z,77.63
2018-12-06T08:27:19.525Z,76.67
2018-12-06T08:29:47.970Z,76.29
2018-12-06T08:32:19.207Z,76.61
2018-12-06T08:34:46.942Z,75.03
2018-12-06T08:37:14.658Z,74.86
2018-12-06T08:39:42.292Z,73.71
2018-12-06T08:42:09.908Z,73.71
2018-12-06T08:44:37.564Z,73.83
2018-12-06T08:47:06.119Z,72.90
2018-12-06T08:49:33.786Z,73.91
2018-12-06T08:52:02.260Z,72.68
2018-12-06T08:54:32.085Z,72.38
2018-12-06T08:56:59.711Z,72.01
2018-12-06T08:59:28.536Z,71.98
2018-12-06T09:01:56.159Z,72.41
2018-12-06T09:04:25.232Z,72.35
2018-12-06T09:06:52.890Z,71.91
2018-12-06T09:09:20.838Z,70.00
2018-12-06T09:11:49.401Z,70.99
2018-12-06T09:14:17.123Z,69.81
2018-12-06T09:16:45.483Z,70.36
2018-12-06T09:19:14.901Z,71.31
2018-12-06T09:21:43.318Z,70.45
2018-12-06T09:24:10.998Z,70.72
2018-12-06T09:26:40.149Z,70.18
2018-12-06T09:29:08.626Z,70.12
2018-12-06T09:31:37.110Z,69.93
2018-12-06T09:34:06.121Z,69.67
2018-12-06T09:36:34.581Z,70.15
2018-12-06T09:39:02.201Z,69.74
2018-12-06T09:41:29.951Z,69.95
2018-12-06T09:43:58.685Z,70.17
2018-12-06T09:46:26.415Z,69.12
2018-12-06T09:48:54.040Z,68.78
2018-12-06T09:51:21.755Z,68.99
2018-12-06T09:53:49.388Z,68.33
2018-12-06T09:56:17.795Z,68.77
2018-12-06T09:58:46.236Z,68.58
2018-12-06T10:01:13.860Z,69.15
2018-12-06T10:03:42.457Z,69.82
2018-12-06T10:06:10.081Z,69.93
2018-12-06T10:08:37.717Z,69.19
2018-12-06T10:11:05.344Z,69.83
2018-12-06T10:13:33.972Z,69.92
2018-12-06T10:16:04.552Z,69.73
2018-12-06T10:18:33.863Z,69.17
2018-12-06T10:21:03.624Z,70.15
2018-12-06T10:23:32.055Z,70.57
2018-12-06T10:26:00.456Z,70.42
2018-12-06T10:28:28.475Z,70.42
2018-12-06T10:30:56.084Z,70.90
2018-12-06T10:33:23.954Z,70.02
2018-12-06T10:35:53.323Z,70.25
2018-12-06T10:38:21.005Z,70.63
2018-12-06T10:40:49.521Z,70.36
2018-12-06T10:43:17.317Z,70.58
2018-12-06T10:45:45.955Z,70.14
2018-12-06T10:48:14.363Z,70.36
2018-12-06T10:50:42.172Z,69.60
2018-12-06T10:53:11.568Z,69.86
2018-12-06T10:55:40.189Z,70.62
2018-12-06T10:58:07.809Z,70.58
2018-12-06T11:00:42.087Z,71.07
2018-12-06T11:03:13.678Z,70.82
2018-12-06T11:05:41.334Z,70.89
2018-12-06T11:08:09.064Z,70.45
2018-12-06T11:10:36.793Z,70.75
2018-12-06T11:13:04.438Z,71.01
2018-12-06T11:15:32.053Z,70.94
2018-12-06T11:17:59.715Z,70.36
2018-12-06T11:20:29.825Z,70.66
2018-12-06T11:22:57.499Z,71.28
2018-12-06T11:25:25.271Z,71.76
2018-12-06T11:27:53.859Z,70.90
2018-12-06T11:30:22.396Z,70.37
2018-12-06T11:32:50.227Z,70.57
2018-12-06T11:35:18.539Z,70.60
2018-12-06T11:37:46.223Z,70.26
2018-12-06T11:40:13.917Z,70.05
2018-12-06T11:42:41.532Z,70.49
2018-12-06T11:45:10.144Z,70.70
2018-12-06T11:47:38.634Z,70.69
2018-12-06T11:50:08.315Z,71.25
2018-12-06T11:52:36.714Z,71.11
2018-12-06T11:55:05.415Z,70.06
2018-12-06T11:57:33.449Z,70.13
2018-12-06T12:00:01.061Z,70.53
2018-12-06T12:02:28.692Z,70.48
2018-12-06T12:04:56.369Z,71.01
2018-12-06T12:07:23.992Z,71.75
2018-12-06T12:09:51.611Z,71.14
2018-12-06T12:12:19.435Z,71.95
2018-12-06T12:14:47.167Z,71.68
2018-12-06T12:17:14.997Z,72.71
2018-12-06T12:19:45.687Z,72.07
2018-12-06T12:22:13.505Z,71.50
2018-12-06T12:24:41.300Z,71.35
2018-12-06T12:27:10.740Z,71.84
2018-12-06T12:29:38.685Z,72.69
2018-12-06T12:32:06.504Z,73.29
2018-12-06T12:34:34.304Z,72.93
2018-12-06T12:37:02.740Z,73.17
2018-12-06T12:39:30.444Z,73.28
2018-12-06T12:42:01.054Z,73.13
2018-12-06T12:44:28.835Z,72.66
2018-12-06T12:46:56.667Z,73.58
2018-12-06T12:49:24.283Z,73.22
2018-12-06T12:51:52.878Z,73.71
2018-12-06T12:54:21.277Z,72.93
2018-12-06T12:56:49.979Z,73.28
2018-12-06T12:59:17.669Z,72.90
2018-12-06T13:01:45.373Z,73.14
2018-12-06T13:04:13.198Z,73.42
2018-12-06T13:06:41.820Z,73.48
2018-12-06T13:09:09.624Z,73.53
2018-12-06T13:11:40.083Z,73.69
2018-12-06T13:14:08.910Z,74.05
2018-12-06T13:16:36.803Z,75.39
2018-12-06T13:19:04.819Z,75.05
2018-12-06T13:21:33.359Z,74.50
2018-12-06T13:24:01.168Z,74.77
2018-12-06T13:26:29.883Z,74.21
2018-12-06T13:28:57.527Z,73.83
2018-12-06T13:31:25.377Z,73.78
2018-12-06T13:33:53.104Z,73.42
2018-12-06T13:36:20.884Z,73.79
2018-12-06T13:38:49.417Z,74.46
2018-12-06T13:41:17.181Z,74.98
2018-12-06T13:43:45.074Z,74.83
2018-12-06T13:46:13.786Z,75.03
2018-12-06T13:48:45.368Z,75.17
2018-12-06T13:51:13.877Z,75.33
2018-12-06T13:53:41.664Z,75.42
2018-12-06T13:56:09.316Z,74.66
2018-12-06T13:58:37.088Z,75.51
2018-12-06T14:01:09.683Z,75.69
2018-12-06T14:03:37.612Z,75.57
2018-12-06T14:06:05.401Z,76.02
2018-12-06T14:08:34.946Z,76.39
2018-12-06T14:11:03.355Z,76.32
2018-12-06T14:13:31.530Z,76.65
2018-12-06T14:15:59.343Z,76.80
2018-12-06T14:18:27.132Z,76.49
2018-12-06T14:20:55.856Z,77.00
2018-12-06T14:23:23.643Z,76.85
2018-12-06T14:25:51.344Z,77.44
2018-12-06T14:28:19.122Z,77.32
2018-12-06T14:30:47.731Z,77.10
2018-12-06T14:33:15.527Z,77.77
2018-12-06T14:35:43.350Z,78.20
2018-12-06T14:38:11.120Z,78.07
2018-12-06T14:40:39.500Z,77.67
2018-12-06T14:43:08.256Z,77.73
2018-12-06T14:45:36.256Z,78.67
2018-12-06T14:48:05.588Z,78.61
2018-12-06T14:50:34.318Z,79.38
2018-12-06T14:53:01.975Z,79.87
2018-12-06T14:55:31.448Z,79.67
2018-12-06T14:57:59.475Z,80.55
2018-12-06T15:00:27.340Z,81.27
2018-12-06T15:02:55.056Z,80.66
2018-12-06T15:05:22.829Z,81.35
2018-12-06T15:07:51.362Z,80.79
2018-12-06T15:10:19.159Z,81.02
2018-12-06T15:12:46.938Z,81.46
2018-12-06T15:15:15.653Z,81.54
2018-12-06T15:17:43.448Z,81.72
2018-12-06T15:20:12.160Z,81.65
2018-12-06T15:22:39.801Z,81.75
2018-12-06T15:25:08.307Z,81.41
2018-12-06T15:27:37.860Z,80.67
2018-12-06T15:30:06.877Z,81.16
2018-12-06T15:32:34.542Z,81.71
2018-12-06T15:35:02.294Z,81.77
2018-12-06T15:37:31.107Z,81.19
2018-12-06T15:39:58.831Z,81.57
2018-12-06T15:42:26.583Z,81.30
2018-12-06T15:44:54.301Z,81.73
2018-12-06T15:47:22.071Z,81.95
2018-12-06T15:49:50.682Z,82.17
2018-12-06T15:52:18.589Z,82.87
2018-12-06T15:54:46.206Z,82.93
2018-12-06T15:57:13.828Z,82.92
2018-12-06T15:59:41.468Z,83.83
2018-12-06T16:02:09.356Z,84.20
2018-12-06T16:04:37.250Z,84.27
2018-12-06T16:07:06.087Z,84.45
2018-12-06T16:09:33.722Z,85.35
2018-12-06T16:12:02.370Z,86.07
2018-12-06T16:14:29.989Z,86.70
2018-12-06T16:16:57.755Z,86.81
2018-12-06T16:19:25.424Z,87.84
2018-12-06T16:21:54.043Z,88.01
2018-12-06T16:24:21.791Z,88.86
2018-12-06T16:26:50.501Z,89.58
2018-12-06T16:29:19.117Z,90.07
2018-12-06T16:31:46.827Z,89.94
2018-12-06T16:34:15.978Z,89.91
2018-12-06T16:36:44.392Z,90.16
2018-12-06T16:39:12.168Z,90.49
2018-12-06T16:41:40.685Z,90.44
2018-12-06T16:44:08.301Z,90.78
2018-12-06T16:46:35.918Z,91.50
2018-12-06T16:49:10.116Z,91.33
2018-12-06T16:51:35.597Z,91.38
2018-12-06T16:54:03.358Z,91.87
2018-12-06T16:56:33.161Z,91.71
2018-12-06T16:59:01.036Z,92.18
2018-12-06T17:01:28.697Z,92.57
2018-12-06T17:03:56.564Z,92.71
2018-12-06T17:06:29.603Z,93.30
2018-12-06T17:08:57.252Z,93.42
2018-12-06T17:11:25.591Z,93.63
2018-12-06T17:13:53.216Z,93.81
2018-12-06T17:16:21.782Z,94.00
2018-12-06T17:18:49.780Z,94.06
2018-12-06T17:21:20.065Z,94.03
2018-12-06T17:23:47.694Z,93.86
2018-12-06T17:26:16.113Z,94.37
2018-12-06T17:28:43.838Z,94.91
2018-12-06T17:31:11.417Z,94.98
2018-12-06T17:33:39.024Z,95.17
2018-12-06T17:36:06.645Z,94.97
2018-12-06T17:38:35.222Z,95.27
2018-12-06T17:41:03.772Z,95.10
2018-12-06T17:43:32.165Z,95.22
2018-12-06T17:46:01.119Z,94.85
2018-12-06T17:48:29.574Z,95.30
2018-12-06T17:50:58.112Z,95.64
2018-12-06T17:53:25.829Z,95.47
2018-12-06T17:55:54.445Z,95.47
2018-12-06T17:58:22.077Z,95.09
2018-12-06T18:00:49.857Z,95.81
2018-12-06T18:03:18.092Z,96.28
2018-12-06T18:05:45.904Z,96.57
2018-12-06T18:08:14.397Z,96.67
2018-12-06T18:10:42.582Z,96.62
2018-12-06T18:13:10.456Z,96.74
2018-12-06T18:15:38.289Z,96.32
2018-12-06T18:18:06.081Z,96.40
2018-12-06T18:20:33.779Z,96.27
2018-12-06T18:23:02.087Z,96.03
2018-12-06T18:25:29.872Z,95.76
2018-12-06T18:27:57.719Z,95.79
2018-12-06T18:30:26.176Z,96.13
2018-12-06T18:32:53.927Z,96.17
2018-12-06T18:35:21.540Z,95.91
2018-12-06T18:37:50.206Z,96.01
2018-12-06T18:40:19.491Z,95.86
2018-12-06T18:42:47.868Z,95.72
2018-12-06T18:45:16.382Z,95.84
2018-12-06T18:47:44.169Z,95.80
2018-12-06T18:50:12.767Z,95.63
2018-12-06T18:52:40.443Z,96.01
2018-12-06T18:55:09.130Z,95.99
2018-12-06T18:57:37.718Z,96.21
2018-12-06T19:00:07.958Z,96.44
2018-12-06T19:02:35.636Z,96.43
2018-12-06T19:05:04.508Z,96.40
2018-12-06T19:07:33.391Z,96.34
2018-12-06T19:10:01.104Z,97.06
2018-12-06T19:12:28.868Z,96.81
2018-12-06T19:14:56.525Z,96.97
2018-12-06T19:17:24.349Z,97.20
2018-12-06T19:19:52.163Z,97.15
2018-12-06T19:22:20.792Z,96.49
2018-12-06T19:24:48.597Z,96.33
2018-12-06T19:27:16.421Z,96.57
2018-12-06T19:29:44.297Z,96.52
2018-12-06T19:32:14.052Z,96.66
2018-12-06T19:34:42.172Z,96.73
2018-12-06T19:37:10.089Z,96.99
2018-12-06T19:39:38.666Z,96.94
2018-12-06T19:42:06.387Z,96.72
2018-12-06T19:44:34.180Z,96.92
2018-12-06T19:47:02.639Z,96.86
2018-12-06T19:49:30.430Z,96.32
2018-12-06T19:51:58.219Z,96.86
2018-12-06T19:54:26.010Z,96.39
2018-12-06T19:56:54.804Z,96.45
2018-12-06T19:59:23.241Z,95.56
2018-12-06T20:01:51.144Z,95.90
2018-12-06T20:04:18.971Z,96.61
2018-12-06T20:06:46.786Z,96.71
2018-12-06T20:09:15.458Z,97.02
2018-12-06T20:11:43.304Z,97.03
2018-12-06T20:14:11.115Z,96.44
2018-12-06T20:17:09.951Z,95.97
2018-12-06T20:19:37.749Z,96.48
2018-12-06T20:22:08.173Z,96.35
2018-12-06T20:24:37.863Z,96.60
2018-12-06T20:27:05.583Z,96.31
2018-12-06T20:29:34.163Z,96.28
2018-12-06T20:32:03.228Z,96.50
2018-12-06T20:34:32.983Z,96.51
2018-12-06T20:37:01.296Z,96.69
2018-12-06T20:39:29.082Z,96.47
2018-12-06T20:41:56.872Z,96.13
2018-12-06T20:44:24.662Z,96.15
2018-12-06T20:46:52.473Z,96.02
2018-12-06T20:49:20.263Z,96.48
2018-12-06T20:51:48.987Z,96.50
2018-12-06T20:54:17.460Z,96.43
2018-12-06T20:56:45.980Z,96.17
2018-12-06T20:59:13.809Z,96.39
2018-12-06T21:01:41.507Z,96.25
2018-12-06T21:04:09.295Z,96.27
2018-12-06T21:06:37.114Z,96.80
2018-12-06T21:09:06.364Z,96.29
2018-12-06T21:11:34.153Z,96.27
2018-12-06T21:14:02.326Z,95.92
2018-12-06T21:16:30.147Z,95.58
2018-12-06T21:18:58.044Z,95.72
2018-12-06T21:21:25.948Z,95.93
2018-12-06T21:23:53.813Z,96.34
2018-12-06T21:26:21.519Z,96.13
2018-12-06T21:28:50.128Z,96.11
2018-12-06T21:31:17.917Z,96.22
2018-12-06T21:33:45.716Z,95.94
2018-12-06T21:36:13.521Z,96.20
2018-12-06T21:38:42.131Z,96.05
2018-12-06T21:41:09.922Z,96.03
2018-12-06T21:43:38.645Z,96.33
2018-12-06T21:46:06.447Z,95.81
2018-12-06T21:48:35.060Z,96.34
2018-12-06T21:51:03.780Z,96.24
2018-12-06T21:53:32.400Z,95.61
2018-12-06T21:56:00.303Z,95.28
2018-12-06T21:58:28.182Z,95.51
2018-12-06T22:00:55.983Z,95.80
2018-12-06T22:03:23.773Z,95.46
2018-12-06T22:05:51.566Z,96.10
2018-12-06T22:08:19.367Z,95.40
2018-12-06T22:10:47.175Z,95.57
2018-12-06T22:13:14.967Z,95.03
2018-12-06T22:15:42.684Z,95.60
2018-12-06T22:18:10.546Z,95.79
2018-12-06T22:20:38.375Z,95.85
2018-12-06T22:23:06.870Z,96.13
2018-12-06T22:25:36.809Z,96.31
2018-12-06T22:28:05.959Z,96.67
2018-12-06T22:30:33.773Z,96.14
2018-12-06T22:33:02.306Z,96.10
2018-12-06T22:35:30.092Z,96.07
2018-12-06T22:37:57.829Z,95.73
2018-12-06T22:40:25.617Z,96.00
2018-12-06T22:42:53.401Z,95.80
2018-12-06T22:48:22.089Z,96.27
2018-12-06T22:50:49.902Z,96.04
2018-12-06T22:53:18.533Z,96.24
2018-12-06T22:55:46.326Z,96.22
2018-12-06T22:58:14.849Z,96.13
2018-12-06T23:00:45.035Z,96.26
2018-12-06T23:03:12.846Z,96.56
2018-12-06T23:05:40.705Z,96.36
2018-12-06T23:08:08.455Z,96.05
2018-12-06T23:10:36.281Z,96.33
2018-12-06T23:13:04.094Z,96.30
2018-12-06T23:15:32.172Z,96.54
2018-12-06T23:17:59.996Z,95.76
2018-12-06T23:20:27.675Z,95.94
2018-12-06T23:22:55.486Z,96.48
2018-12-06T23:25:23.116Z,96.05
2018-12-06T23:27:50.871Z,95.60
2018-12-06T23:30:18.498Z,95.54
2018-12-06T23:32:46.115Z,95.83
2018-12-06T23:35:13.834Z,94.82
2018-12-06T23:37:41.661Z,95.20
2018-12-06T23:40:09.516Z,95.08
2018-12-06T23:42:37.257Z,95.41
2018-12-06T23:45:06.275Z,95.21
2018-12-06T23:47:34.891Z,95.03
2018-12-06T23:50:03.687Z,94.89
2018-12-06T23:52:32.120Z,94.93
2018-12-06T23:55:01.062Z,94.61
2018-12-06T23:57:28.763Z,94.64
2018-12-06T23:59:57.454Z,93.50
